Flight Track Log - Related Links

Times and Time Zones

All times are in EDT time to prevent confusion due to time zone crossing. See the N303BF flight status page for this flight to view local times or setup timezone preferences in your user account.

Time Position Orientation Groundspeed Altitude Reporting Facility
EDT Latitude Longitude Course Direction KTS MPH feet Rate Location/Type
Sat 09:27:00 AM 33.8239 -78.8175 220° Southwest  Level Estimated
Sat 09:27:17 AM 33.5317 -79.4142 227° Southwest 241 277 10,400  Level Jacksonville Center
Sat 09:28:00 AM 33.7984 -78.8510 228° Southwest  Level FlightAware Approximate
Sat 09:28:16 AM 33.4747 -79.4589 213° Southwest 241 277 10,300  Level Jacksonville Center
Sat 09:29:00 AM 33.7730 -78.8844 228° Southwest  Level FlightAware Approximate
Sat 09:29:16 AM 33.4236 -79.5081 219° Southwest 241 277 10,400  Level Jacksonville Center
Sat 09:30:00 AM 33.7475 -78.9178 227° Southwest  Level FlightAware Approximate
Sat 09:30:16 AM 33.3728 -79.5547 217° Southwest 241 277 10,400  Level Jacksonville Center
Sat 09:31:00 AM 33.7220 -78.9513 227° Southwest  Level FlightAware Approximate
Sat 09:31:16 AM 33.3178 -79.5992 214° Southwest 241 277 10,400  Level Jacksonville Center
Sat 09:32:00 AM 33.6965 -78.9846 227° Southwest  Level FlightAware Approximate
Sat 09:32:16 AM 33.2667 -79.6433 216° Southwest 241 277 10,400  Level Jacksonville Center
Sat 09:33:16 AM 33.2178 -79.6922 220° Southwest 241 277 10,400  Level Jacksonville Center
Sat 09:34:16 AM 33.1606 -79.7389 214° Southwest 241 277 10,400  Level Jacksonville Center
Sat 09:35:16 AM 33.1094 -79.7803 214° Southwest 241 277 10,400  Level Jacksonville Center
Sat 09:36:16 AM 33.0542 -79.8269 215° Southwest 241 277 10,400  Level Jacksonville Center
Sat 09:37:16 AM 33.0031 -79.8756 219° Southwest 241 277 10,400  Level Jacksonville Center
Sat 09:38:16 AM 32.9500 -79.9172 213° Southwest 241 277 10,400  Level Jacksonville Center
Sat 09:39:16 AM 32.8967 -79.9608 214° Southwest 241 277 10,400 -50 Level Jacksonville Center
Sat 09:40:16 AM 32.8456 -80.0072 217° Southwest 241 277 10,300  Descending Jacksonville Center
Sat 09:41:16 AM 32.7922 -80.0483 213° Southwest 234 269 10,400 50 Climbing Jacksonville Center
Sat 09:42:16 AM 32.7347 -80.0897 211° Southwest 234 269 10,400  Level Jacksonville Center
Sat 09:43:16 AM 32.6814 -80.1308 213° Southwest 234 269 10,400 50 Level Jacksonville Center
Sat 09:44:16 AM 32.6300 -80.1792 218° Southwest 234 269 10,500 50 Climbing Jacksonville Center
Sat 09:45:16 AM 32.5789 -80.2250 217° Southwest 234 269 10,500  Level Jacksonville Center
Sat 09:46:16 AM 32.5278 -80.2686 216° Southwest 234 269 10,500 -50 Level Jacksonville Center
Sat 09:47:16 AM 32.4658 -80.3097 209° Southwest 131 151 10,400 -50 Descending Jacksonville Center
Sat 09:48:17 AM 32.4186 -80.3481 214° Southwest 206 237 10,400 50 Level Jacksonville Center
Sat 09:49:16 AM 32.3672 -80.3886 214° Southwest 211 243 10,500  Climbing Jacksonville Center
Sat 09:50:16 AM 32.2972 -80.4397 212° Southwest 239 275 10,400 -50 Descending Jacksonville Center
Sat 09:51:16 AM 32.2417 -80.4856 215° Southwest 245 282 10,400  Level Jacksonville Center
Sat 09:52:16 AM 32.1903 -80.5286 215° Southwest 245 282 10,400  Level Jacksonville Center
Sat 09:53:16 AM 32.1347 -80.5692 212° Southwest 245 282 10,400 50 Level Jacksonville Center
Sat 09:54:16 AM 32.0833 -80.6122 215° Southwest 239 275 10,500  Climbing Jacksonville Center
Sat 09:55:16 AM 32.0300 -80.6553 214° Southwest 233 268 10,400 -50 Descending Jacksonville Center
Sat 09:56:16 AM 31.9806 -80.6956 215° Southwest 238 274 10,400  Level Jacksonville Center
Sat 09:57:16 AM 31.9247 -80.7386 213° Southwest 238 274 10,400  Level Jacksonville Center
Sat 09:58:16 AM 31.8672 -80.7839 214° Southwest 238 274 10,400 50 Level Jacksonville Center
Sat 09:59:16 AM 31.8094 -80.8244 211° Southwest 238 274 10,500  Climbing Jacksonville Center
Sat 10:00:16 AM 31.7597 -80.8622 213° Southwest 233 268 10,400 -50 Descending Jacksonville Center
Sat 10:01:16 AM 31.7019 -80.9000 209° Southwest 238 274 10,400  Level Jacksonville Center
Sat 10:02:17 AM 31.6400 -80.9428 210° Southwest 238 274 10,400  Level Jacksonville Center
Sat 10:03:16 AM 31.5842 -80.9806 210° Southwest 238 274 10,400  Level Jacksonville Center
Sat 10:04:16 AM 31.5283 -81.0206 211° Southwest 238 274 10,400  Level Jacksonville Center
Sat 10:05:16 AM 31.4767 -81.0461 203° Southwest 238 274 10,400  Level Jacksonville Center
Sat 10:06:16 AM 31.4167 -81.0789 205° Southwest 238 274 10,400  Level Jacksonville Center
Sat 10:07:16 AM 31.3503 -81.1094 201° Southwest 238 274 10,400  Level Jacksonville Center
Sat 10:08:16 AM 31.2881 -81.1397 203° Southwest 238 274 10,400  Level Jacksonville Center
Sat 10:09:16 AM 31.2278 -81.1675 202° Southwest 231 266 10,400  Level Jacksonville Center
Sat 10:10:16 AM 31.1656 -81.1956 201° Southwest 240 276 10,400  Level Jacksonville Center
Sat 10:11:16 AM 31.1053 -81.2233 202° Southwest 235 270 10,400  Level Jacksonville Center
Sat 10:12:17 AM 31.0408 -81.2389 192° South 240 276 10,400  Level Jacksonville Center
Sat 10:13:16 AM 30.9783 -81.2472 187° South 240 276 10,400  Level Jacksonville Center
Sat 10:14:04 AM 30.9283 -81.2506 183° South 235 270 10,400  Level Jacksonville Center
Sat 10:14:16 AM 30.9094 -81.2508 181° South 240 276 10,400  Level Jacksonville Center
Sat 10:14:53 AM 30.8739 -81.2539 184° South 237 273 10,400  Level Jacksonville Center
Sat 10:15:16 AM 30.8447 -81.2519 177° South 240 276 10,400  Level Jacksonville Center
Sat 10:15:54 AM 30.8008 -81.2553 184° South 237 273 10,400  Level Jacksonville Center
Sat 10:16:16 AM 30.7800 -81.2556 181° South 235 270 10,400 98 Level Jacksonville Center
Sat 10:16:55 AM 30.7361 -81.2589 184° South 233 268 10,500  Climbing Jacksonville Center
Sat 10:17:16 AM 30.7300 -81.2589 180° South 235 270 10,400 -122 Descending Jacksonville Center
Sat 10:17:44 AM 30.6842 -81.2572 178° South 234 269 10,400  Level Jacksonville Center
Sat 10:18:16 AM 30.6569 -81.2600 185° South 235 270 10,400  Level Jacksonville Center
Sat 10:18:39 AM 30.6236 -81.2583 178° South 235 270 10,400  Level Jacksonville Center
Sat 10:19:16 AM 30.5922 -81.2589 181° South 235 270 10,400  Level Jacksonville Center
Sat 10:19:46 AM 30.5506 -81.2619 184° South 233 268 10,400  Level Jacksonville Center
Sat 10:20:16 AM 30.5253 -81.2600 176° South 235 270 10,400  Level Jacksonville Center
Sat 10:20:47 AM 30.4858 -81.2583 178° South 231 266 10,400  Level Jacksonville Center
Sat 10:21:16 AM 30.4628 -81.2586 181° South 235 270 10,400  Level Jacksonville Center
Sat 10:21:48 AM 30.4189 -81.2594 181° South 233 268 10,400  Level Jacksonville Center
Sat 10:22:16 AM 30.3958 -81.2572 175° South 235 270 10,400  Level Jacksonville Center
Sat 10:22:49 AM 30.3542 -81.2581 181° South 232 267 10,400  Level Jacksonville Center
Sat 10:23:16 AM 30.3311 -81.2561 176° South 235 270 10,400  Level Jacksonville Center
Sat 10:23:50 AM 30.2894 -81.2544 178° South 233 268 10,400  Level Jacksonville Center
Sat 10:24:50 AM 30.2247 -81.2531 179° South 231 266 10,400  Level Jacksonville Center
Sat 10:25:51 AM 30.1600 -81.2542 181° South 234 269 10,400  Level Jacksonville Center
Sat 10:26:53 AM 30.0889 -81.2458 174° South 237 273 10,400  Level Jacksonville Center
Sat 10:27:59 AM 30.0178 -81.2375 174° South 238 274 10,400 -50 Level Jacksonville Center
Sat 10:28:54 AM 29.9592 -81.2289 173° South 238 274 10,300 -51 Descending Jacksonville Center
Sat 10:29:57 AM 29.8900 -81.2108 167° South 236 272 10,300  Level Jacksonville Center
Sat 10:30:40 AM 29.8439 -81.1997 168° South 236 272 10,300 58 Level Jacksonville Center
Sat 10:31:41 AM 29.7811 -81.1839 168° South 235 270 10,400 49 Climbing Jacksonville Center
Sat 10:32:42 AM 29.7161 -81.1661 167° South 235 270 10,400 49 Level Jacksonville Center
Sat 10:33:43 AM 29.6469 -81.1481 167° South 235 270 10,500 49 Climbing Jacksonville Center
Sat 10:34:44 AM 29.5842 -81.1300 166° South 234 269 10,500 -49 Level Jacksonville Center
Sat 10:35:45 AM 29.5192 -81.1169 170° South 236 272 10,400 -49 Descending Jacksonville Center
Sat 10:36:46 AM 29.4564 -81.0992 166° South 237 273 10,400  Level Jacksonville Center
Sat 10:37:46 AM 29.3914 -81.0811 166° South 238 274 10,400  Level Jacksonville Center
Sat 10:38:47 AM 29.3222 -81.0608 166° South 237 273 10,400  Level Jacksonville Center
Sat 10:39:48 AM 29.2594 -81.0408 164° South 236 272 10,400 49 Level Jacksonville Center
Sat 10:40:49 AM 29.1986 -81.0206 164° South 233 268 10,500 49 Climbing Jacksonville Center
Sat 10:41:50 AM 29.1336 -81.0003 165° South 236 272 10,500 -32 Level Jacksonville Center
Sat 10:43:55 AM 29.0000 -80.9500 162° South 235 270 10,400 -32 Descending Orlando TRACON
Sat 10:44:56 AM 28.9333 -80.9333 168° South 237 273 10,400 47 Level Orlando TRACON
Sat 10:46:02 AM 28.8667 -80.9167 168° South 237 273 10,500  Climbing Orlando TRACON
Sat 10:47:02 AM 28.8000 -80.9000 168° South 238 274 10,400 -50 Descending Orlando TRACON
Sat 10:48:02 AM 28.7333 -80.8667 156° South 237 273 10,400 53 Level Orlando TRACON
Sat 10:48:56 AM 28.6833 -80.8500 164° South 237 273 10,500  Climbing Orlando TRACON
Sat 10:49:57 AM 28.6167 -80.8333 168° South 237 273 10,400  Descending Orlando TRACON
Sat 10:52:04 AM 28.4908 -80.7917 164° South 252 290 10,500 -64 Climbing Miami Center
Sat 10:53:04 AM 28.4267 -80.7728 165° South 247 284 10,200 -450 Descending Miami Center
Sat 10:54:04 AM 28.3608 -80.7444 159° South 247 284 9,600 -600 Descending Miami Center
Sat 10:55:04 AM 28.3008 -80.7214 161° South 243 280 9,000 -550 Descending Miami Center
Sat 10:56:04 AM 28.2389 -80.6956 160° South 243 280 8,500 -550 Descending Miami Center
Sat 10:57:04 AM 28.1731 -80.6581 153° Southeast 243 280 7,900 -650 Descending Miami Center
Sat 10:58:04 AM 28.1136 -80.6253 154° Southeast 243 280 7,200 -600 Descending Miami Center
Sat 10:59:04 AM 28.0558 -80.5953 155° Southeast 238 274 6,700 -550 Descending Miami Center
Sat 11:00:04 AM 28.0003 -80.5675 156° South 238 274 6,100 -650 Descending Miami Center
Sat 11:01:04 AM 27.9364 -80.5325 154° Southeast 232 267 5,400 -550 Descending Miami Center
Sat 11:02:04 AM 27.8789 -80.5003 154° Southeast 232 267 5,000 -400 Descending Miami Center
Sat 11:03:04 AM 27.8231 -80.4703 155° Southeast 226 260 4,600 -300 Descending Miami Center
Sat 11:04:04 AM 27.7736 -80.4453 156° South 226 260 4,400 -350 Descending Miami Center
Sat 11:05:04 AM 27.7158 -80.4175 157° South 226 260 3,900 -600 Descending Miami Center
Sat 11:06:04 AM 27.6519 -80.3922 161° South 231 266 3,200 -400 Descending Miami Center
Sat 11:07:04 AM 27.5917 -80.3739 165° South 226 260 3,100 -100 Descending Miami Center
Sat 11:08:04 AM 27.5358 -80.3533 162° South 220 253 3,000 -150 Descending Miami Center
Sat 11:09:04 AM 27.4864 -80.3333 160° South 220 253 2,800 -250 Descending Miami Center
Sat 11:10:04 AM 27.4303 -80.3128 162° South 220 253 2,500 -300 Descending Miami Center
Sat 11:12:00 AM 27.3667 -80.2835 90° East  Level FlightAware Approximate
Sat 11:19:00 AM 27.1817 -80.2213 166° South  Level Estimated
Sat 11:20:00 AM 27.1817 -80.2213 166° South  Level Estimated
Sat 11:21:00 AM 27.1817 -80.2213 166° South  Level Estimated
Sat 11:22:00 AM 27.1817 -80.2213 166° South  Level Estimated
Sat 11:23:00 AM 27.1817 -80.2213 166° South  Level Estimated
Sat 11:24:00 AM 27.1817 -80.2213 166° South  Level Estimated
Sat 11:25:00 AM 27.1817 -80.2213 166° South  Level Estimated
Sat 11:26:00 AM 27.1817 -80.2213 166° South  Level Estimated
Sat 11:27:00 AM 27.1817 -80.2213 166° South  Level Estimated
Sat 11:28:00 AM 27.1817 -80.2213 166° South  Level Estimated
Sat 11:29:00 AM 27.1817 -80.2213 166° South  Level Estimated
Sat 11:30:00 AM 27.1817 -80.2213 166° South  Level Estimated
Sat 11:31:00 AM 27.1817 -80.2213 166° South  Level Estimated
Sat 11:32:00 AM 27.1817 -80.2213 166° South  Level Estimated
Sat 11:33:00 AM 27.1817 -80.2213 166° South  Level Estimated
Sat 11:34:00 AM 27.1817 -80.2213 166° South  Level Estimated
Sat 11:35:00 AM 27.1817 -80.2213 166° South  Level Estimated

Login

Don't have an account? Register now (free) for customized features, flight alerts, and more!